sensor_id;sensor_type;location;lat;lon;timestamp;temperature;humidity
39849;DHT22;25518;47.878;15.914;2023-09-07T00:02:10;13.00;99.90
39849;DHT22;25518;47.878;15.914;2023-09-07T00:04:41;13.00;99.90
39849;DHT22;25518;47.878;15.914;2023-09-07T00:07:13;13.00;99.90
39849;DHT22;25518;47.878;15.914;2023-09-07T00:09:45;13.00;99.90
39849;DHT22;25518;47.878;15.914;2023-09-07T00:12:16;13.00;99.90
39849;DHT22;25518;47.878;15.914;2023-09-07T00:14:47;12.90;99.90
39849;DHT22;25518;47.878;15.914;2023-09-07T00:17:18;13.00;99.90
39849;DHT22;25518;47.878;15.914;2023-09-07T00:19:48;13.00;99.90
39849;DHT22;25518;47.878;15.914;2023-09-07T00:22:21;13.00;99.90
39849;DHT22;25518;47.878;15.914;2023-09-07T00:24:52;13.10;99.90
39849;DHT22;25518;47.878;15.914;2023-09-07T00:27:23;13.00;99.90
39849;DHT22;25518;47.878;15.914;2023-09-07T00:29:54;12.80;99.90
39849;DHT22;25518;47.878;15.914;2023-09-07T00:32:25;12.80;99.90
39849;DHT22;25518;47.878;15.914;2023-09-07T00:34:56;12.70;99.90
39849;DHT22;25518;47.878;15.914;2023-09-07T00:37:27;12.60;99.90
39849;DHT22;25518;47.878;15.914;2023-09-07T00:39:57;12.60;99.90
39849;DHT22;25518;47.878;15.914;2023-09-07T00:42:28;11.10;99.90
39849;DHT22;25518;47.878;15.914;2023-09-07T00:44:59;12.70;99.90
39849;DHT22;25518;47.878;15.914;2023-09-07T00:47:31;12.60;99.90
39849;DHT22;25518;47.878;15.914;2023-09-07T00:50:05;13.10;99.90
39849;DHT22;25518;47.878;15.914;2023-09-07T00:52:37;12.50;99.90
39849;DHT22;25518;47.878;15.914;2023-09-07T00:55:10;12.50;99.90
39849;DHT22;25518;47.878;15.914;2023-09-07T00:57:41;12.70;99.90
39849;DHT22;25518;47.878;15.914;2023-09-07T01:00:13;12.70;99.90
39849;DHT22;25518;47.878;15.914;2023-09-07T01:02:45;12.50;99.90
39849;DHT22;25518;47.878;15.914;2023-09-07T01:05:16;12.30;99.90
39849;DHT22;25518;47.878;15.914;2023-09-07T01:07:52;12.40;99.90
39849;DHT22;25518;47.878;15.914;2023-09-07T01:10:24;12.40;99.90
39849;DHT22;25518;47.878;15.914;2023-09-07T01:12:55;12.50;99.90
39849;DHT22;25518;47.878;15.914;2023-09-07T01:15:26;12.40;99.90
39849;DHT22;25518;47.878;15.914;2023-09-07T01:17:58;12.40;99.90
39849;DHT22;25518;47.878;15.914;2023-09-07T01:20:30;12.40;99.90
39849;DHT22;25518;47.878;15.914;2023-09-07T01:23:03;12.40;99.90
39849;DHT22;25518;47.878;15.914;2023-09-07T01:25:35;12.50;99.90
39849;DHT22;25518;47.878;15.914;2023-09-07T01:28:06;12.60;99.90
39849;DHT22;25518;47.878;15.914;2023-09-07T01:30:37;12.50;99.90
39849;DHT22;25518;47.878;15.914;2023-09-07T01:33:09;12.50;99.90
39849;DHT22;25518;47.878;15.914;2023-09-07T01:35:41;12.40;99.90
39849;DHT22;25518;47.878;15.914;2023-09-07T01:38:12;12.40;99.90
39849;DHT22;25518;47.878;15.914;2023-09-07T01:40:43;12.40;99.90
39849;DHT22;25518;47.878;15.914;2023-09-07T01:43:14;12.30;99.90
39849;DHT22;25518;47.878;15.914;2023-09-07T01:45:45;12.40;99.90
39849;DHT22;25518;47.878;15.914;2023-09-07T01:48:16;12.30;99.90
39849;DHT22;25518;47.878;15.914;2023-09-07T01:50:46;12.30;99.90
39849;DHT22;25518;47.878;15.914;2023-09-07T01:53:17;12.40;99.90
39849;DHT22;25518;47.878;15.914;2023-09-07T01:55:48;12.30;99.90
39849;DHT22;25518;47.878;15.914;2023-09-07T01:58:19;12.20;99.90
39849;DHT22;25518;47.878;15.914;2023-09-07T02:00:52;12.00;99.90
39849;DHT22;25518;47.878;15.914;2023-09-07T02:03:27;11.90;99.90
39849;DHT22;25518;47.878;15.914;2023-09-07T02:05:58;11.90;99.90
39849;DHT22;25518;47.878;15.914;2023-09-07T02:08:29;12.00;99.90
39849;DHT22;25518;47.878;15.914;2023-09-07T02:11:00;12.00;99.90
39849;DHT22;25518;47.878;15.914;2023-09-07T02:13:31;12.00;99.90
39849;DHT22;25518;47.878;15.914;2023-09-07T02:16:06;11.80;99.90
39849;DHT22;25518;47.878;15.914;2023-09-07T02:18:37;11.90;99.90
39849;DHT22;25518;47.878;15.914;2023-09-07T02:21:13;11.90;99.90
39849;DHT22;25518;47.878;15.914;2023-09-07T02:23:44;11.90;99.90
39849;DHT22;25518;47.878;15.914;2023-09-07T02:26:15;11.80;99.90
39849;DHT22;25518;47.878;15.914;2023-09-07T02:28:46;11.70;99.90
39849;DHT22;25518;47.878;15.914;2023-09-07T02:31:17;11.70;99.90
39849;DHT22;25518;47.878;15.914;2023-09-07T02:33:48;11.70;99.90
39849;DHT22;25518;47.878;15.914;2023-09-07T02:36:19;11.70;99.90
39849;DHT22;25518;47.878;15.914;2023-09-07T02:38:50;11.80;99.90
39849;DHT22;25518;47.878;15.914;2023-09-07T02:41:21;11.80;99.90
39849;DHT22;25518;47.878;15.914;2023-09-07T02:43:52;11.70;99.90
39849;DHT22;25518;47.878;15.914;2023-09-07T02:46:23;11.60;99.90
39849;DHT22;25518;47.878;15.914;2023-09-07T02:48:54;11.50;99.90
39849;DHT22;25518;47.878;15.914;2023-09-07T02:51:27;11.60;99.90
39849;DHT22;25518;47.878;15.914;2023-09-07T02:53:58;11.50;99.90
39849;DHT22;25518;47.878;15.914;2023-09-07T02:56:30;11.30;99.90
39849;DHT22;25518;47.878;15.914;2023-09-07T02:59:01;11.30;99.90
39849;DHT22;25518;47.878;15.914;2023-09-07T03:19:07;11.50;99.90
39849;DHT22;25518;47.878;15.914;2023-09-07T03:21:38;11.40;99.90
39849;DHT22;25518;47.878;15.914;2023-09-07T03:24:09;11.40;99.90
39849;DHT22;25518;47.878;15.914;2023-09-07T03:26:39;11.40;99.90
39849;DHT22;25518;47.878;15.914;2023-09-07T03:29:10;11.50;99.90
39849;DHT22;25518;47.878;15.914;2023-09-07T03:31:41;11.40;99.90
39849;DHT22;25518;47.878;15.914;2023-09-07T03:34:12;11.30;99.90
39849;DHT22;25518;47.878;15.914;2023-09-07T03:36:43;11.30;99.90
39849;DHT22;25518;47.878;15.914;2023-09-07T03:39:14;11.40;99.90
39849;DHT22;25518;47.878;15.914;2023-09-07T03:41:45;11.40;99.90
39849;DHT22;25518;47.878;15.914;2023-09-07T03:44:16;11.30;99.90
39849;DHT22;25518;47.878;15.914;2023-09-07T03:46:47;11.40;99.90
39849;DHT22;25518;47.878;15.914;2023-09-07T03:49:18;11.50;99.90
39849;DHT22;25518;47.878;15.914;2023-09-07T03:51:49;11.60;99.90
39849;DHT22;25518;47.878;15.914;2023-09-07T03:54:21;11.50;99.90
39849;DHT22;25518;47.878;15.914;2023-09-07T03:56:52;11.50;99.90
39849;DHT22;25518;47.878;15.914;2023-09-07T03:59:24;11.40;99.90
39849;DHT22;25518;47.878;15.914;2023-09-07T04:01:55;11.30;99.90
39849;DHT22;25518;47.878;15.914;2023-09-07T04:04:26;9.60;99.90
39849;DHT22;25518;47.878;15.914;2023-09-07T04:06:56;11.20;99.90
39849;DHT22;25518;47.878;15.914;2023-09-07T04:09:27;11.30;99.90
39849;DHT22;25518;47.878;15.914;2023-09-07T04:11:59;11.20;99.90
39849;DHT22;25518;47.878;15.914;2023-09-07T04:14:30;11.10;99.90
39849;DHT22;25518;47.878;15.914;2023-09-07T04:17:01;10.90;99.90
39849;DHT22;25518;47.878;15.914;2023-09-07T04:19:32;11.00;99.90
39849;DHT22;25518;47.878;15.914;2023-09-07T04:22:03;10.80;99.90
39849;DHT22;25518;47.878;15.914;2023-09-07T04:24:34;10.80;99.90
39849;DHT22;25518;47.878;15.914;2023-09-07T04:27:06;10.70;99.90
39849;DHT22;25518;47.878;15.914;2023-09-07T04:29:37;10.80;99.90
39849;DHT22;25518;47.878;15.914;2023-09-07T04:32:08;11.00;99.90
39849;DHT22;25518;47.878;15.914;2023-09-07T04:34:39;11.10;99.90
39849;DHT22;25518;47.878;15.914;2023-09-07T04:37:10;11.10;99.90
39849;DHT22;25518;47.878;15.914;2023-09-07T04:39:41;10.90;99.90
39849;DHT22;25518;47.878;15.914;2023-09-07T04:42:12;10.90;99.90
39849;DHT22;25518;47.878;15.914;2023-09-07T04:44:43;11.10;99.90
39849;DHT22;25518;47.878;15.914;2023-09-07T04:47:14;11.10;99.90
39849;DHT22;25518;47.878;15.914;2023-09-07T04:49:49;11.30;99.90
39849;DHT22;25518;47.878;15.914;2023-09-07T04:52:21;11.30;99.90
39849;DHT22;25518;47.878;15.914;2023-09-07T04:54:52;11.30;99.90
39849;DHT22;25518;47.878;15.914;2023-09-07T04:57:23;11.30;99.90
39849;DHT22;25518;47.878;15.914;2023-09-07T04:59:54;11.30;99.90
39849;DHT22;25518;47.878;15.914;2023-09-07T05:02:25;11.40;99.90
39849;DHT22;25518;47.878;15.914;2023-09-07T05:04:56;11.30;99.90
39849;DHT22;25518;47.878;15.914;2023-09-07T05:07:27;11.20;99.90
39849;DHT22;25518;47.878;15.914;2023-09-07T05:09:58;11.30;99.90
39849;DHT22;25518;47.878;15.914;2023-09-07T05:12:28;11.40;99.90
39849;DHT22;25518;47.878;15.914;2023-09-07T05:14:59;11.40;99.90
39849;DHT22;25518;47.878;15.914;2023-09-07T05:17:31;11.40;99.90
39849;DHT22;25518;47.878;15.914;2023-09-07T05:20:02;11.40;99.90
39849;DHT22;25518;47.878;15.914;2023-09-07T05:22:33;11.40;99.90
39849;DHT22;25518;47.878;15.914;2023-09-07T05:25:07;11.40;99.90
39849;DHT22;25518;47.878;15.914;2023-09-07T05:27:39;11.40;99.90
39849;DHT22;25518;47.878;15.914;2023-09-07T05:30:10;11.40;99.90
39849;DHT22;25518;47.878;15.914;2023-09-07T05:32:41;11.30;99.90
39849;DHT22;25518;47.878;15.914;2023-09-07T05:35:12;11.30;99.90
39849;DHT22;25518;47.878;15.914;2023-09-07T05:37:46;11.30;99.90
39849;DHT22;25518;47.878;15.914;2023-09-07T05:40:19;11.30;99.90
39849;DHT22;25518;47.878;15.914;2023-09-07T05:42:50;11.40;99.90
39849;DHT22;25518;47.878;15.914;2023-09-07T05:45:21;11.50;99.90
39849;DHT22;25518;47.878;15.914;2023-09-07T05:47:51;11.50;99.90
39849;DHT22;25518;47.878;15.914;2023-09-07T05:50:23;11.50;99.90
39849;DHT22;25518;47.878;15.914;2023-09-07T05:52:53;11.60;99.90
39849;DHT22;25518;47.878;15.914;2023-09-07T05:55:24;11.60;99.90
39849;DHT22;25518;47.878;15.914;2023-09-07T05:57:56;11.60;99.90
39849;DHT22;25518;47.878;15.914;2023-09-07T06:00:27;11.70;99.90
39849;DHT22;25518;47.878;15.914;2023-09-07T06:02:58;11.60;99.90
39849;DHT22;25518;47.878;15.914;2023-09-07T06:05:29;11.70;99.90
39849;DHT22;25518;47.878;15.914;2023-09-07T06:08:00;11.70;99.90
39849;DHT22;25518;47.878;15.914;2023-09-07T06:10:31;11.70;99.90
39849;DHT22;25518;47.878;15.914;2023-09-07T06:13:02;11.80;99.90
39849;DHT22;25518;47.878;15.914;2023-09-07T06:15:33;11.70;99.90
39849;DHT22;25518;47.878;15.914;2023-09-07T06:18:04;11.80;99.90
39849;DHT22;25518;47.878;15.914;2023-09-07T06:20:35;11.90;99.90
39849;DHT22;25518;47.878;15.914;2023-09-07T06:23:06;12.00;99.90
39849;DHT22;25518;47.878;15.914;2023-09-07T06:25:37;12.00;99.90
39849;DHT22;25518;47.878;15.914;2023-09-07T06:28:08;12.00;99.90
39849;DHT22;25518;47.878;15.914;2023-09-07T06:30:39;12.10;99.90
39849;DHT22;25518;47.878;15.914;2023-09-07T06:33:09;12.10;99.90
39849;DHT22;25518;47.878;15.914;2023-09-07T06:35:40;12.20;99.90
39849;DHT22;25518;47.878;15.914;2023-09-07T06:38:12;12.20;99.90
39849;DHT22;25518;47.878;15.914;2023-09-07T06:40:48;12.30;99.90
39849;DHT22;25518;47.878;15.914;2023-09-07T06:43:19;12.30;99.90
39849;DHT22;25518;47.878;15.914;2023-09-07T06:45:50;12.40;99.90
39849;DHT22;25518;47.878;15.914;2023-09-07T06:48:21;12.50;99.90
39849;DHT22;25518;47.878;15.914;2023-09-07T06:50:52;12.40;99.90
39849;DHT22;25518;47.878;15.914;2023-09-07T06:53:23;12.50;99.90
39849;DHT22;25518;47.878;15.914;2023-09-07T06:55:59;12.70;99.90
39849;DHT22;25518;47.878;15.914;2023-09-07T06:58:31;12.70;99.90
39849;DHT22;25518;47.878;15.914;2023-09-07T07:01:03;12.60;99.90
39849;DHT22;25518;47.878;15.914;2023-09-07T07:03:35;12.70;99.90
39849;DHT22;25518;47.878;15.914;2023-09-07T07:06:06;12.80;99.90
39849;DHT22;25518;47.878;15.914;2023-09-07T07:08:37;12.80;99.90
39849;DHT22;25518;47.878;15.914;2023-09-07T07:11:08;13.00;99.90
39849;DHT22;25518;47.878;15.914;2023-09-07T07:13:39;12.90;99.90
39849;DHT22;25518;47.878;15.914;2023-09-07T07:16:09;13.10;99.90
39849;DHT22;25518;47.878;15.914;2023-09-07T07:18:41;13.20;99.90
39849;DHT22;25518;47.878;15.914;2023-09-07T07:21:12;13.20;99.90
39849;DHT22;25518;47.878;15.914;2023-09-07T07:23:43;13.30;99.90
39849;DHT22;25518;47.878;15.914;2023-09-07T07:26:13;13.40;99.90
39849;DHT22;25518;47.878;15.914;2023-09-07T07:28:44;13.60;99.90
39849;DHT22;25518;47.878;15.914;2023-09-07T07:31:15;13.60;99.90
39849;DHT22;25518;47.878;15.914;2023-09-07T07:33:47;13.80;99.90
39849;DHT22;25518;47.878;15.914;2023-09-07T07:36:20;13.90;99.90
39849;DHT22;25518;47.878;15.914;2023-09-07T07:38:51;14.00;99.90
39849;DHT22;25518;47.878;15.914;2023-09-07T07:41:22;14.10;99.90
39849;DHT22;25518;47.878;15.914;2023-09-07T07:43:54;14.20;99.90
39849;DHT22;25518;47.878;15.914;2023-09-07T07:46:25;14.30;99.90
39849;DHT22;25518;47.878;15.914;2023-09-07T07:48:56;14.40;99.90
39849;DHT22;25518;47.878;15.914;2023-09-07T07:51:27;14.50;99.90
39849;DHT22;25518;47.878;15.914;2023-09-07T07:53:58;14.60;99.90
39849;DHT22;25518;47.878;15.914;2023-09-07T07:56:29;14.50;99.90
39849;DHT22;25518;47.878;15.914;2023-09-07T07:59:00;15.00;99.90
39849;DHT22;25518;47.878;15.914;2023-09-07T08:01:32;15.20;99.90
39849;DHT22;25518;47.878;15.914;2023-09-07T08:04:04;15.30;99.90
39849;DHT22;25518;47.878;15.914;2023-09-07T08:06:35;15.40;99.90
39849;DHT22;25518;47.878;15.914;2023-09-07T08:09:06;14.00;99.90
39849;DHT22;25518;47.878;15.914;2023-09-07T08:11:38;15.20;99.90
39849;DHT22;25518;47.878;15.914;2023-09-07T08:14:10;15.80;99.90
39849;DHT22;25518;47.878;15.914;2023-09-07T08:16:41;15.90;99.90
39849;DHT22;25518;47.878;15.914;2023-09-07T08:19:12;16.00;99.90
39849;DHT22;25518;47.878;15.914;2023-09-07T08:21:43;16.10;99.90
39849;DHT22;25518;47.878;15.914;2023-09-07T08:24:16;16.20;99.90
39849;DHT22;25518;47.878;15.914;2023-09-07T08:26:47;16.60;99.90
39849;DHT22;25518;47.878;15.914;2023-09-07T08:29:22;17.20;99.90
39849;DHT22;25518;47.878;15.914;2023-09-07T08:31:55;17.60;99.90
39849;DHT22;25518;47.878;15.914;2023-09-07T08:34:28;17.70;99.90
39849;DHT22;25518;47.878;15.914;2023-09-07T08:36:59;17.50;99.90
39849;DHT22;25518;47.878;15.914;2023-09-07T08:39:30;17.70;99.90
39849;DHT22;25518;47.878;15.914;2023-09-07T08:42:02;18.40;99.90
39849;DHT22;25518;47.878;15.914;2023-09-07T08:44:34;18.50;99.90
39849;DHT22;25518;47.878;15.914;2023-09-07T08:47:08;19.10;99.90
39849;DHT22;25518;47.878;15.914;2023-09-07T08:49:40;19.30;99.90
39849;DHT22;25518;47.878;15.914;2023-09-07T08:52:13;19.60;99.90
39849;DHT22;25518;47.878;15.914;2023-09-07T08:54:45;19.70;99.90
39849;DHT22;25518;47.878;15.914;2023-09-07T08:57:18;20.00;99.90
39849;DHT22;25518;47.878;15.914;2023-09-07T08:59:51;20.20;99.90
39849;DHT22;25518;47.878;15.914;2023-09-07T09:02:22;20.50;99.90
39849;DHT22;25518;47.878;15.914;2023-09-07T09:04:53;20.70;99.90
39849;DHT22;25518;47.878;15.914;2023-09-07T09:07:24;21.00;99.90
39849;DHT22;25518;47.878;15.914;2023-09-07T09:10:06;21.20;99.90
39849;DHT22;25518;47.878;15.914;2023-09-07T09:12:45;21.40;99.90
39849;DHT22;25518;47.878;15.914;2023-09-07T09:15:17;21.50;99.90
39849;DHT22;25518;47.878;15.914;2023-09-07T09:17:49;21.70;99.90
39849;DHT22;25518;47.878;15.914;2023-09-07T09:20:24;21.70;99.90
39849;DHT22;25518;47.878;15.914;2023-09-07T09:22:55;21.70;99.90
39849;DHT22;25518;47.878;15.914;2023-09-07T09:25:27;21.80;99.90
39849;DHT22;25518;47.878;15.914;2023-09-07T09:27:57;22.00;99.90
39849;DHT22;25518;47.878;15.914;2023-09-07T09:30:29;22.20;99.90
39849;DHT22;25518;47.878;15.914;2023-09-07T09:33:00;22.30;99.90
39849;DHT22;25518;47.878;15.914;2023-09-07T09:35:32;22.40;99.90
39849;DHT22;25518;47.878;15.914;2023-09-07T09:38:05;22.60;99.90
39849;DHT22;25518;47.878;15.914;2023-09-07T09:40:36;22.70;99.90
39849;DHT22;25518;47.878;15.914;2023-09-07T09:43:08;22.80;99.90
39849;DHT22;25518;47.878;15.914;2023-09-07T09:45:39;23.00;99.90
39849;DHT22;25518;47.878;15.914;2023-09-07T09:48:11;23.10;99.90
39849;DHT22;25518;47.878;15.914;2023-09-07T09:50:43;23.10;99.90
39849;DHT22;25518;47.878;15.914;2023-09-07T09:53:16;23.10;99.90
39849;DHT22;25518;47.878;15.914;2023-09-07T09:55:50;23.20;99.90
39849;DHT22;25518;47.878;15.914;2023-09-07T09:58:23;23.40;99.90
39849;DHT22;25518;47.878;15.914;2023-09-07T10:00:56;23.60;99.90
39849;DHT22;25518;47.878;15.914;2023-09-07T10:03:31;23.50;99.90
39849;DHT22;25518;47.878;15.914;2023-09-07T10:06:17;23.70;99.90
39849;DHT22;25518;47.878;15.914;2023-09-07T10:08:59;23.70;99.90
39849;DHT22;25518;47.878;15.914;2023-09-07T10:11:32;23.80;99.90
39849;DHT22;25518;47.878;15.914;2023-09-07T10:14:04;22.20;99.90
39849;DHT22;25518;47.878;15.914;2023-09-07T10:16:53;23.90;99.90
39849;DHT22;25518;47.878;15.914;2023-09-07T10:19:26;24.10;99.90
39849;DHT22;25518;47.878;15.914;2023-09-07T10:21:57;24.20;99.90
39849;DHT22;25518;47.878;15.914;2023-09-07T10:24:31;24.30;99.90
39849;DHT22;25518;47.878;15.914;2023-09-07T10:27:07;24.40;99.90
39849;DHT22;25518;47.878;15.914;2023-09-07T10:29:44;24.30;99.90
39849;DHT22;25518;47.878;15.914;2023-09-07T10:32:16;24.40;99.90
39849;DHT22;25518;47.878;15.914;2023-09-07T10:34:47;24.30;99.90
39849;DHT22;25518;47.878;15.914;2023-09-07T10:37:18;24.40;99.90
39849;DHT22;25518;47.878;15.914;2023-09-07T10:39:50;24.60;99.90
39849;DHT22;25518;47.878;15.914;2023-09-07T10:42:23;24.50;99.90
39849;DHT22;25518;47.878;15.914;2023-09-07T10:44:54;24.60;99.90
39849;DHT22;25518;47.878;15.914;2023-09-07T10:47:25;24.50;99.90
39849;DHT22;25518;47.878;15.914;2023-09-07T10:49:57;24.50;99.90
39849;DHT22;25518;47.878;15.914;2023-09-07T10:52:28;24.50;99.90
39849;DHT22;25518;47.878;15.914;2023-09-07T10:54:59;24.70;99.90
39849;DHT22;25518;47.878;15.914;2023-09-07T10:57:30;24.70;99.20
39849;DHT22;25518;47.878;15.914;2023-09-07T11:00:02;24.80;99.00
39849;DHT22;25518;47.878;15.914;2023-09-07T11:02:34;24.80;99.00
39849;DHT22;25518;47.878;15.914;2023-09-07T11:05:05;24.80;98.90
39849;DHT22;25518;47.878;15.914;2023-09-07T11:07:37;24.80;99.10
39849;DHT22;25518;47.878;15.914;2023-09-07T11:10:09;24.90;99.90
39849;DHT22;25518;47.878;15.914;2023-09-07T11:12:40;24.90;98.30
39849;DHT22;25518;47.878;15.914;2023-09-07T11:15:11;25.00;98.50
39849;DHT22;25518;47.878;15.914;2023-09-07T11:17:42;24.70;98.80
39849;DHT22;25518;47.878;15.914;2023-09-07T11:20:21;25.10;98.20
39849;DHT22;25518;47.878;15.914;2023-09-07T11:22:54;25.10;98.20
39849;DHT22;25518;47.878;15.914;2023-09-07T11:25:25;25.50;99.90
39849;DHT22;25518;47.878;15.914;2023-09-07T11:27:57;25.50;95.80
39849;DHT22;25518;47.878;15.914;2023-09-07T11:30:28;25.40;97.20
39849;DHT22;25518;47.878;15.914;2023-09-07T11:35:34;25.40;97.10
39849;DHT22;25518;47.878;15.914;2023-09-07T11:38:05;25.50;96.70
39849;DHT22;25518;47.878;15.914;2023-09-07T11:40:37;25.60;97.30
39849;DHT22;25518;47.878;15.914;2023-09-07T11:43:08;25.70;97.20
39849;DHT22;25518;47.878;15.914;2023-09-07T11:45:41;25.80;96.80
39849;DHT22;25518;47.878;15.914;2023-09-07T11:48:13;25.80;96.10
39849;DHT22;25518;47.878;15.914;2023-09-07T11:50:44;25.60;96.00
39849;DHT22;25518;47.878;15.914;2023-09-07T11:53:15;25.50;96.50
39849;DHT22;25518;47.878;15.914;2023-09-07T11:55:46;25.70;96.40
39849;DHT22;25518;47.878;15.914;2023-09-07T11:58:17;25.70;95.80
39849;DHT22;25518;47.878;15.914;2023-09-07T12:00:48;26.00;97.00
39849;DHT22;25518;47.878;15.914;2023-09-07T12:03:19;25.90;96.30
39849;DHT22;25518;47.878;15.914;2023-09-07T12:05:50;25.90;96.50
39849;DHT22;25518;47.878;15.914;2023-09-07T12:08:22;26.00;96.70
39849;DHT22;25518;47.878;15.914;2023-09-07T12:10:53;25.20;96.20
39849;DHT22;25518;47.878;15.914;2023-09-07T12:13:24;25.80;97.50
39849;DHT22;25518;47.878;15.914;2023-09-07T12:15:56;25.80;97.10
39849;DHT22;25518;47.878;15.914;2023-09-07T12:18:27;26.00;98.00
39849;DHT22;25518;47.878;15.914;2023-09-07T12:20:58;26.20;97.10
39849;DHT22;25518;47.878;15.914;2023-09-07T12:23:29;26.20;95.00
39849;DHT22;25518;47.878;15.914;2023-09-07T12:26:01;26.10;95.60
39849;DHT22;25518;47.878;15.914;2023-09-07T12:28:35;26.00;95.50
39849;DHT22;25518;47.878;15.914;2023-09-07T12:31:07;25.80;95.30
39849;DHT22;25518;47.878;15.914;2023-09-07T12:33:38;25.90;96.40
39849;DHT22;25518;47.878;15.914;2023-09-07T12:36:09;26.00;95.60
39849;DHT22;25518;47.878;15.914;2023-09-07T12:38:41;26.00;94.50
39849;DHT22;25518;47.878;15.914;2023-09-07T12:41:11;26.10;96.00
39849;DHT22;25518;47.878;15.914;2023-09-07T12:43:42;26.10;95.40
39849;DHT22;25518;47.878;15.914;2023-09-07T12:46:13;26.20;96.20
39849;DHT22;25518;47.878;15.914;2023-09-07T12:48:44;26.10;95.90
39849;DHT22;25518;47.878;15.914;2023-09-07T12:51:15;26.20;96.10
39849;DHT22;25518;47.878;15.914;2023-09-07T12:53:46;26.20;96.20
39849;DHT22;25518;47.878;15.914;2023-09-07T12:56:17;26.30;97.00
39849;DHT22;25518;47.878;15.914;2023-09-07T12:58:50;26.30;95.30
39849;DHT22;25518;47.878;15.914;2023-09-07T13:01:23;26.20;96.40
39849;DHT22;25518;47.878;15.914;2023-09-07T13:03:54;26.10;95.90
39849;DHT22;25518;47.878;15.914;2023-09-07T13:06:24;26.00;94.30
39849;DHT22;25518;47.878;15.914;2023-09-07T13:08:55;26.00;94.70
39849;DHT22;25518;47.878;15.914;2023-09-07T13:11:26;25.00;94.50
39849;DHT22;25518;47.878;15.914;2023-09-07T13:13:57;25.80;94.40
39849;DHT22;25518;47.878;15.914;2023-09-07T13:16:28;25.90;96.30
39849;DHT22;25518;47.878;15.914;2023-09-07T13:18:59;26.00;95.60
39849;DHT22;25518;47.878;15.914;2023-09-07T13:21:30;26.10;95.50
39849;DHT22;25518;47.878;15.914;2023-09-07T13:24:01;26.20;96.50
39849;DHT22;25518;47.878;15.914;2023-09-07T13:26:32;26.30;96.20
39849;DHT22;25518;47.878;15.914;2023-09-07T13:29:03;26.30;96.10
39849;DHT22;25518;47.878;15.914;2023-09-07T13:31:34;26.50;95.90
39849;DHT22;25518;47.878;15.914;2023-09-07T13:34:06;26.40;95.80
39849;DHT22;25518;47.878;15.914;2023-09-07T13:36:37;26.20;95.40
39849;DHT22;25518;47.878;15.914;2023-09-07T13:39:07;26.10;95.50
39849;DHT22;25518;47.878;15.914;2023-09-07T13:41:38;26.20;95.90
39849;DHT22;25518;47.878;15.914;2023-09-07T13:44:09;26.20;95.50
39849;DHT22;25518;47.878;15.914;2023-09-07T13:46:41;26.30;96.30
39849;DHT22;25518;47.878;15.914;2023-09-07T13:49:13;26.60;95.30
39849;DHT22;25518;47.878;15.914;2023-09-07T13:51:44;26.80;95.50
39849;DHT22;25518;47.878;15.914;2023-09-07T13:54:16;27.00;94.60
39849;DHT22;25518;47.878;15.914;2023-09-07T13:56:46;27.40;94.90
39849;DHT22;25518;47.878;15.914;2023-09-07T13:59:17;27.60;94.50
39849;DHT22;25518;47.878;15.914;2023-09-07T14:01:49;28.10;93.90
39849;DHT22;25518;47.878;15.914;2023-09-07T14:04:20;28.50;93.90
39849;DHT22;25518;47.878;15.914;2023-09-07T14:06:51;28.60;93.40
39849;DHT22;25518;47.878;15.914;2023-09-07T14:09:22;28.30;92.40
39849;DHT22;25518;47.878;15.914;2023-09-07T14:11:54;28.30;93.40
39849;DHT22;25518;47.878;15.914;2023-09-07T14:14:25;28.60;92.40
39849;DHT22;25518;47.878;15.914;2023-09-07T14:16:56;28.20;92.30
39849;DHT22;25518;47.878;15.914;2023-09-07T14:19:29;27.90;92.30
39849;DHT22;25518;47.878;15.914;2023-09-07T14:22:01;27.50;92.60
39849;DHT22;25518;47.878;15.914;2023-09-07T14:24:32;27.50;92.40
39849;DHT22;25518;47.878;15.914;2023-09-07T14:27:03;27.40;93.00
39849;DHT22;25518;47.878;15.914;2023-09-07T14:29:35;27.20;92.90
39849;DHT22;25518;47.878;15.914;2023-09-07T14:32:06;26.80;93.50
39849;DHT22;25518;47.878;15.914;2023-09-07T14:34:37;26.40;93.80
39849;DHT22;25518;47.878;15.914;2023-09-07T14:37:08;25.90;94.80
39849;DHT22;25518;47.878;15.914;2023-09-07T14:39:39;25.70;95.80
39849;DHT22;25518;47.878;15.914;2023-09-07T14:42:17;25.80;95.80
39849;DHT22;25518;47.878;15.914;2023-09-07T14:44:50;25.60;96.30
39849;DHT22;25518;47.878;15.914;2023-09-07T14:47:21;25.50;95.70
39849;DHT22;25518;47.878;15.914;2023-09-07T14:49:55;25.50;95.20
39849;DHT22;25518;47.878;15.914;2023-09-07T14:52:26;25.30;95.90
39849;DHT22;25518;47.878;15.914;2023-09-07T14:54:58;25.40;95.80
39849;DHT22;25518;47.878;15.914;2023-09-07T14:57:29;25.30;96.70
39849;DHT22;25518;47.878;15.914;2023-09-07T15:00:01;25.30;95.60
39849;DHT22;25518;47.878;15.914;2023-09-07T15:02:32;25.20;96.60
39849;DHT22;25518;47.878;15.914;2023-09-07T15:05:04;25.30;97.00
39849;DHT22;25518;47.878;15.914;2023-09-07T15:07:35;25.30;97.00
39849;DHT22;25518;47.878;15.914;2023-09-07T15:10:06;25.20;96.20
39849;DHT22;25518;47.878;15.914;2023-09-07T15:12:37;25.10;96.50
39849;DHT22;25518;47.878;15.914;2023-09-07T15:15:08;25.20;96.40
39849;DHT22;25518;47.878;15.914;2023-09-07T15:17:43;25.00;96.40
39849;DHT22;25518;47.878;15.914;2023-09-07T15:20:15;25.00;96.10
39849;DHT22;25518;47.878;15.914;2023-09-07T15:22:46;25.00;96.20
39849;DHT22;25518;47.878;15.914;2023-09-07T15:25:17;25.00;96.30
39849;DHT22;25518;47.878;15.914;2023-09-07T15:27:48;25.10;96.30
39849;DHT22;25518;47.878;15.914;2023-09-07T15:30:19;25.10;95.80
39849;DHT22;25518;47.878;15.914;2023-09-07T15:32:50;25.10;95.90
39849;DHT22;25518;47.878;15.914;2023-09-07T15:35:21;24.80;96.20
39849;DHT22;25518;47.878;15.914;2023-09-07T15:37:52;24.70;96.80
39849;DHT22;25518;47.878;15.914;2023-09-07T15:40:23;24.60;96.60
39849;DHT22;25518;47.878;15.914;2023-09-07T15:42:54;24.50;96.80
39849;DHT22;25518;47.878;15.914;2023-09-07T15:45:25;24.30;97.60
39849;DHT22;25518;47.878;15.914;2023-09-07T15:47:56;23.50;97.00
39849;DHT22;25518;47.878;15.914;2023-09-07T15:50:27;24.30;97.30
39849;DHT22;25518;47.878;15.914;2023-09-07T15:52:58;24.10;97.70
39849;DHT22;25518;47.878;15.914;2023-09-07T15:55:31;24.00;97.60
39849;DHT22;25518;47.878;15.914;2023-09-07T15:58:03;23.90;98.60
39849;DHT22;25518;47.878;15.914;2023-09-07T16:00:33;23.70;98.20
39849;DHT22;25518;47.878;15.914;2023-09-07T16:03:04;23.90;97.90